sensor_id;sensor_type;location;lat;lon;timestamp;pressure;altitude;pressure_sealevel;temperature;humidity
967;BME280;56108;48.730;9.304;2023-02-28T00:00:53;98248.81;;;-2.92;74.84
967;BME280;56108;48.730;9.304;2023-02-28T00:03:01;98250.50;;;-2.89;74.99
967;BME280;56108;48.730;9.304;2023-02-28T00:05:10;98242.72;;;-2.94;75.53
967;BME280;56108;48.730;9.304;2023-02-28T00:07:19;98244.47;;;-2.96;75.87
967;BME280;56108;48.730;9.304;2023-02-28T00:09:29;98258.34;;;-2.94;75.51
967;BME280;56108;48.730;9.304;2023-02-28T00:11:37;98244.50;;;-2.99;76.34
967;BME280;56108;48.730;9.304;2023-02-28T00:13:46;98243.66;;;-3.01;76.64
967;BME280;56108;48.730;9.304;2023-02-28T00:16:01;98246.22;;;-2.99;76.22
967;BME280;56108;48.730;9.304;2023-02-28T00:18:09;98245.34;;;-2.98;76.23
967;BME280;56108;48.730;9.304;2023-02-28T00:20:18;98239.28;;;-2.97;76.31
967;BME280;56108;48.730;9.304;2023-02-28T00:22:26;98240.19;;;-3.06;76.80
967;BME280;56108;48.730;9.304;2023-02-28T00:24:37;98244.59;;;-3.12;77.13
967;BME280;56108;48.730;9.304;2023-02-28T00:26:44;98233.25;;;-3.08;76.89
967;BME280;56108;48.730;9.304;2023-02-28T00:28:52;98244.50;;;-3.03;76.52
967;BME280;56108;48.730;9.304;2023-02-28T00:31:01;98243.66;;;-3.02;76.49
967;BME280;56108;48.730;9.304;2023-02-28T00:33:09;98244.53;;;-3.05;76.60
967;BME280;56108;48.730;9.304;2023-02-28T00:35:17;98241.97;;;-3.11;76.99
967;BME280;56108;48.730;9.304;2023-02-28T00:37:25;98241.97;;;-3.11;76.95
967;BME280;56108;48.730;9.304;2023-02-28T00:39:37;98238.50;;;-3.15;77.40
967;BME280;56108;48.730;9.304;2023-02-28T00:41:46;98242.78;;;-3.04;77.16
967;BME280;56108;48.730;9.304;2023-02-28T00:43:54;98246.28;;;-3.10;76.92
967;BME280;56108;48.730;9.304;2023-02-28T00:46:03;98241.94;;;-3.06;76.78
967;BME280;56108;48.730;9.304;2023-02-28T00:48:11;98241.06;;;-3.08;77.02
967;BME280;56108;48.730;9.304;2023-02-28T00:50:20;98238.50;;;-3.15;77.65
967;BME280;56108;48.730;9.304;2023-02-28T00:52:28;98244.56;;;-3.08;77.12
967;BME280;56108;48.730;9.304;2023-02-28T00:54:38;98236.78;;;-3.12;77.55
967;BME280;56108;48.730;9.304;2023-02-28T00:56:46;98233.28;;;-3.15;78.00
967;BME280;56108;48.730;9.304;2023-02-28T00:58:55;98241.13;;;-3.13;78.01
967;BME280;56108;48.730;9.304;2023-02-28T01:01:03;98235.88;;;-3.15;78.58
967;BME280;56108;48.730;9.304;2023-02-28T01:03:11;98240.28;;;-3.18;78.66
967;BME280;56108;48.730;9.304;2023-02-28T01:05:19;98235.94;;;-3.18;79.01
967;BME280;56108;48.730;9.304;2023-02-28T01:07:27;98233.31;;;-3.24;79.56
967;BME280;56108;48.730;9.304;2023-02-28T01:09:39;98229.84;;;-3.20;79.73
967;BME280;56108;48.730;9.304;2023-02-28T01:11:47;98230.75;;;-3.25;80.13
967;BME280;56108;48.730;9.304;2023-02-28T01:13:55;98234.16;;;-3.19;80.39
967;BME280;56108;48.730;9.304;2023-02-28T01:16:03;98232.44;;;-3.20;80.67
967;BME280;56108;48.730;9.304;2023-02-28T01:18:12;98227.25;;;-3.21;81.24
967;BME280;56108;48.730;9.304;2023-02-28T01:20:20;98230.72;;;-3.24;81.80
967;BME280;56108;48.730;9.304;2023-02-28T01:22:28;98229.00;;;-3.23;81.95
967;BME280;56108;48.730;9.304;2023-02-28T01:24:39;98225.47;;;-3.15;81.97
967;BME280;56108;48.730;9.304;2023-02-28T01:26:49;98222.00;;;-3.15;82.14
967;BME280;56108;48.730;9.304;2023-02-28T01:28:58;98228.13;;;-3.18;82.50
967;BME280;56108;48.730;9.304;2023-02-28T01:31:06;98218.56;;;-3.17;82.61
967;BME280;56108;48.730;9.304;2023-02-28T01:33:15;98219.44;;;-3.17;82.65
967;BME280;56108;48.730;9.304;2023-02-28T01:35:23;98217.72;;;-3.21;83.00
967;BME280;56108;48.730;9.304;2023-02-28T01:37:31;98217.72;;;-3.21;83.45
967;BME280;56108;48.730;9.304;2023-02-28T01:39:43;98222.91;;;-3.16;83.40
967;BME280;56108;48.730;9.304;2023-02-28T01:41:51;98219.44;;;-3.17;83.22
967;BME280;56108;48.730;9.304;2023-02-28T01:44:04;98221.19;;;-3.22;83.89
967;BME280;56108;48.730;9.304;2023-02-28T01:46:13;98212.50;;;-3.21;83.90
967;BME280;56108;48.730;9.304;2023-02-28T01:48:26;98220.28;;;-3.19;83.98
967;BME280;56108;48.730;9.304;2023-02-28T01:50:38;98217.75;;;-3.27;84.57
967;BME280;56108;48.730;9.304;2023-02-28T01:52:49;98214.28;;;-3.29;84.87
967;BME280;56108;48.730;9.304;2023-02-28T01:55:05;98211.69;;;-3.30;85.51
967;BME280;56108;48.730;9.304;2023-02-28T01:57:16;98205.59;;;-3.26;85.32
967;BME280;56108;48.730;9.304;2023-02-28T01:59:30;98204.72;;;-3.30;85.74
967;BME280;56108;48.730;9.304;2023-02-28T02:01:40;98198.69;;;-3.32;86.02
967;BME280;56108;48.730;9.304;2023-02-28T02:03:48;98203.84;;;-3.26;86.04
967;BME280;56108;48.730;9.304;2023-02-28T02:06:02;98203.00;;;-3.28;86.08
967;BME280;56108;48.730;9.304;2023-02-28T02:08:15;98205.56;;;-3.22;86.03
967;BME280;56108;48.730;9.304;2023-02-28T02:10:31;98194.31;;;-3.25;86.44
967;BME280;56108;48.730;9.304;2023-02-28T02:12:52;98198.66;;;-3.26;86.47
967;BME280;56108;48.730;9.304;2023-02-28T02:15:05;98198.59;;;-3.20;86.42
967;BME280;56108;48.730;9.304;2023-02-28T02:17:26;98193.41;;;-3.21;86.40
967;BME280;56108;48.730;9.304;2023-02-28T02:20:01;98194.28;;;-3.18;86.22
967;BME280;56108;48.730;9.304;2023-02-28T02:22:43;98189.91;;;-3.19;86.37
967;BME280;56108;48.730;9.304;2023-02-28T02:25:10;98189.91;;;-3.16;86.65
967;BME280;56108;48.730;9.304;2023-02-28T02:27:43;98189.06;;;-3.19;86.78
967;BME280;56108;48.730;9.304;2023-02-28T02:30:17;98180.41;;;-3.18;87.53
967;BME280;56108;48.730;9.304;2023-02-28T02:32:50;98182.09;;;-3.11;87.24
967;BME280;56108;48.730;9.304;2023-02-28T02:35:12;98175.16;;;-3.12;87.23
967;BME280;56108;48.730;9.304;2023-02-28T02:37:27;98178.63;;;-3.15;87.53
967;BME280;56108;48.730;9.304;2023-02-28T02:39:43;98174.28;;;-3.12;87.35
967;BME280;56108;48.730;9.304;2023-02-28T02:41:53;98185.56;;;-3.12;87.57
967;BME280;56108;48.730;9.304;2023-02-28T02:44:05;98182.94;;;-3.07;87.54
967;BME280;56108;48.730;9.304;2023-02-28T02:46:20;98185.53;;;-3.09;87.47
967;BME280;56108;48.730;9.304;2023-02-28T02:48:32;98182.94;;;-3.09;87.80
967;BME280;56108;48.730;9.304;2023-02-28T02:50:46;98186.38;;;-3.02;88.08
967;BME280;56108;48.730;9.304;2023-02-28T02:52:58;98181.13;;;-2.99;87.41
967;BME280;56108;48.730;9.304;2023-02-28T02:55:11;98182.91;;;-3.04;87.76
967;BME280;56108;48.730;9.304;2023-02-28T02:57:25;98173.31;;;-2.99;87.89
967;BME280;56108;48.730;9.304;2023-02-28T02:59:38;98183.75;;;-3.01;87.64
967;BME280;56108;48.730;9.304;2023-02-28T03:01:49;98182.00;;;-2.97;87.79
967;BME280;56108;48.730;9.304;2023-02-28T03:04:00;98182.03;;;-3.02;87.49
967;BME280;56108;48.730;9.304;2023-02-28T03:06:11;98180.28;;;-3.03;87.89
967;BME280;56108;48.730;9.304;2023-02-28T03:08:19;98178.56;;;-3.01;88.05
967;BME280;56108;48.730;9.304;2023-02-28T03:10:33;98187.25;;;-3.02;88.29
967;BME280;56108;48.730;9.304;2023-02-28T03:12:50;98185.50;;;-3.01;88.36
967;BME280;56108;48.730;9.304;2023-02-28T03:15:08;98185.56;;;-3.10;88.67
967;BME280;56108;48.730;9.304;2023-02-28T03:20:05;98186.38;;;-3.05;89.16
967;BME280;56108;48.730;9.304;2023-02-28T03:22:47;98182.88;;;-3.03;89.30
967;BME280;56108;48.730;9.304;2023-02-28T03:25:05;98185.53;;;-3.09;89.58
967;BME280;56108;48.730;9.304;2023-02-28T03:27:21;98186.38;;;-3.05;89.80
967;BME280;56108;48.730;9.304;2023-02-28T03:29:34;98189.81;;;-2.97;89.44
967;BME280;56108;48.730;9.304;2023-02-28T03:31:47;98191.53;;;-2.92;89.09
967;BME280;56108;48.730;9.304;2023-02-28T03:34:01;98182.81;;;-2.91;89.18
967;BME280;56108;48.730;9.304;2023-02-28T03:36:13;98179.34;;;-2.90;89.50
967;BME280;56108;48.730;9.304;2023-02-28T03:38:29;98175.88;;;-2.93;89.33
967;BME280;56108;48.730;9.304;2023-02-28T03:40:42;98177.63;;;-2.92;89.63
967;BME280;56108;48.730;9.304;2023-02-28T03:42:55;98174.16;;;-2.94;89.50
967;BME280;56108;48.730;9.304;2023-02-28T03:45:11;98174.16;;;-2.94;89.33
967;BME280;56108;48.730;9.304;2023-02-28T03:47:23;98175.03;;;-2.92;89.50
967;BME280;56108;48.730;9.304;2023-02-28T03:49:36;98177.56;;;-2.88;89.82
967;BME280;56108;48.730;9.304;2023-02-28T03:51:49;98181.88;;;-2.82;89.60
967;BME280;56108;48.730;9.304;2023-02-28T03:54:05;98182.78;;;-2.84;89.84
967;BME280;56108;48.730;9.304;2023-02-28T03:56:16;98178.44;;;-2.85;89.78
967;BME280;56108;48.730;9.304;2023-02-28T03:58:29;98172.38;;;-2.86;89.40
967;BME280;56108;48.730;9.304;2023-02-28T04:00:39;98176.66;;;-2.82;89.64
967;BME280;56108;48.730;9.304;2023-02-28T04:02:48;98183.63;;;-2.82;89.47
967;BME280;56108;48.730;9.304;2023-02-28T04:04:57;98176.69;;;-2.83;89.68
967;BME280;56108;48.730;9.304;2023-02-28T04:07:07;98176.66;;;-2.82;89.69
967;BME280;56108;48.730;9.304;2023-02-28T04:09:18;98181.06;;;-2.85;89.49
967;BME280;56108;48.730;9.304;2023-02-28T04:11:32;98180.09;;;-2.77;89.67
967;BME280;56108;48.730;9.304;2023-02-28T04:13:40;98182.78;;;-2.81;89.64
967;BME280;56108;48.730;9.304;2023-02-28T04:15:51;98184.53;;;-2.86;90.00
967;BME280;56108;48.730;9.304;2023-02-28T04:17:59;98187.13;;;-2.85;90.43
967;BME280;56108;48.730;9.304;2023-02-28T04:20:08;98181.00;;;-2.79;90.75
967;BME280;56108;48.730;9.304;2023-02-28T04:22:17;98182.75;;;-2.83;90.98
967;BME280;56108;48.730;9.304;2023-02-28T04:24:28;98183.63;;;-2.81;90.83
967;BME280;56108;48.730;9.304;2023-02-28T04:26:36;98180.09;;;-2.77;91.13
967;BME280;56108;48.730;9.304;2023-02-28T04:28:45;98188.81;;;-2.76;91.07
967;BME280;56108;48.730;9.304;2023-02-28T04:30:56;98187.91;;;-2.77;91.01
967;BME280;56108;48.730;9.304;2023-02-28T04:33:04;98182.72;;;-2.77;91.06
967;BME280;56108;48.730;9.304;2023-02-28T04:35:12;98182.75;;;-2.80;91.42
967;BME280;56108;48.730;9.304;2023-02-28T04:37:20;98175.81;;;-2.81;91.43
967;BME280;56108;48.730;9.304;2023-02-28T04:39:37;98182.72;;;-2.77;91.24
967;BME280;56108;48.730;9.304;2023-02-28T04:41:46;98174.03;;;-2.77;91.42
967;BME280;56108;48.730;9.304;2023-02-28T04:43:53;98177.50;;;-2.77;91.42
967;BME280;56108;48.730;9.304;2023-02-28T04:46:04;98174.97;;;-2.81;91.88
967;BME280;56108;48.730;9.304;2023-02-28T04:48:12;98180.13;;;-2.78;91.72
967;BME280;56108;48.730;9.304;2023-02-28T04:50:20;98181.81;;;-2.73;91.86
967;BME280;56108;48.730;9.304;2023-02-28T04:52:28;98180.13;;;-2.78;91.74
967;BME280;56108;48.730;9.304;2023-02-28T04:54:39;98180.09;;;-2.71;92.00
967;BME280;56108;48.730;9.304;2023-02-28T04:56:47;98183.59;;;-2.75;91.84
967;BME280;56108;48.730;9.304;2023-02-28T04:58:55;98181.81;;;-2.73;91.86
967;BME280;56108;48.730;9.304;2023-02-28T05:01:06;98174.88;;;-2.74;92.34
967;BME280;56108;48.730;9.304;2023-02-28T05:03:17;98180.94;;;-2.69;91.94
967;BME280;56108;48.730;9.304;2023-02-28T05:05:25;98180.94;;;-2.69;91.58
967;BME280;56108;48.730;9.304;2023-02-28T05:07:33;98186.16;;;-2.70;91.78
967;BME280;56108;48.730;9.304;2023-02-28T05:09:44;98176.63;;;-2.71;91.77
967;BME280;56108;48.730;9.304;2023-02-28T05:11:51;98179.16;;;-2.64;91.78
967;BME280;56108;48.730;9.304;2023-02-28T05:13:59;98177.47;;;-2.71;91.87
967;BME280;56108;48.730;9.304;2023-02-28T05:16:08;98178.28;;;-2.61;92.16
967;BME280;56108;48.730;9.304;2023-02-28T05:18:16;98180.00;;;-2.62;91.51
967;BME280;56108;48.730;9.304;2023-02-28T05:20:24;98182.66;;;-2.65;91.71
967;BME280;56108;48.730;9.304;2023-02-28T05:22:32;98174.75;;;-2.57;91.39
967;BME280;56108;48.730;9.304;2023-02-28T05:24:40;98182.66;;;-2.65;91.16
967;BME280;56108;48.730;9.304;2023-02-28T05:26:52;98187.78;;;-2.57;91.57
967;BME280;56108;48.730;9.304;2023-02-28T05:29:00;98191.25;;;-2.56;91.63
967;BME280;56108;48.730;9.304;2023-02-28T05:31:08;98190.44;;;-2.60;91.54
967;BME280;56108;48.730;9.304;2023-02-28T05:33:18;98193.03;;;-2.60;91.18
967;BME280;56108;48.730;9.304;2023-02-28T05:35:26;98187.81;;;-2.58;91.08
967;BME280;56108;48.730;9.304;2023-02-28T05:37:34;98184.31;;;-2.57;90.99
967;BME280;56108;48.730;9.304;2023-02-28T05:39:42;98185.16;;;-2.57;90.90
967;BME280;56108;48.730;9.304;2023-02-28T05:41:53;98190.38;;;-2.54;90.79
967;BME280;56108;48.730;9.304;2023-02-28T05:44:00;98192.97;;;-2.52;90.90
967;BME280;56108;48.730;9.304;2023-02-28T05:46:10;98196.47;;;-2.56;91.00
967;BME280;56108;48.730;9.304;2023-02-28T05:48:18;98198.16;;;-2.52;90.62
967;BME280;56108;48.730;9.304;2023-02-28T05:50:26;98192.09;;;-2.53;90.50
967;BME280;56108;48.730;9.304;2023-02-28T05:52:34;98199.91;;;-2.50;90.64
967;BME280;56108;48.730;9.304;2023-02-28T05:54:42;98198.16;;;-2.49;90.49
967;BME280;56108;48.730;9.304;2023-02-28T05:56:53;98203.38;;;-2.49;90.91
967;BME280;56108;48.730;9.304;2023-02-28T05:59:01;98205.97;;;-2.49;90.88
967;BME280;56108;48.730;9.304;2023-02-28T06:01:25;98206.81;;;-2.44;90.24
967;BME280;56108;48.730;9.304;2023-02-28T06:03:38;98207.69;;;-2.45;89.92
967;BME280;56108;48.730;9.304;2023-02-28T06:05:46;98208.53;;;-2.43;90.13
967;BME280;56108;48.730;9.304;2023-02-28T06:07:55;98205.03;;;-2.42;90.08
967;BME280;56108;48.730;9.304;2023-02-28T06:10:03;98211.97;;;-2.41;90.47
967;BME280;56108;48.730;9.304;2023-02-28T06:12:14;98207.69;;;-2.45;90.32
967;BME280;56108;48.730;9.304;2023-02-28T06:14:22;98213.66;;;-2.34;90.05
967;BME280;56108;48.730;9.304;2023-02-28T06:16:31;98218.06;;;-2.42;90.28
967;BME280;56108;48.730;9.304;2023-02-28T06:18:40;98207.63;;;-2.41;90.05
967;BME280;56108;48.730;9.304;2023-02-28T06:20:52;98217.16;;;-2.38;89.85
967;BME280;56108;48.730;9.304;2023-02-28T06:23:00;98219.81;;;-2.40;89.62
967;BME280;56108;48.730;9.304;2023-02-28T06:25:09;98212.81;;;-2.38;89.52
967;BME280;56108;48.730;9.304;2023-02-28T06:27:20;98218.88;;;-2.36;89.23
967;BME280;56108;48.730;9.304;2023-02-28T06:29:28;98224.97;;;-2.33;89.06
967;BME280;56108;48.730;9.304;2023-02-28T06:31:37;98232.75;;;-2.29;88.61
967;BME280;56108;48.730;9.304;2023-02-28T06:33:46;98232.75;;;-2.29;88.72
967;BME280;56108;48.730;9.304;2023-02-28T06:35:54;98228.34;;;-2.24;89.12
967;BME280;56108;48.730;9.304;2023-02-28T06:38:02;98232.75;;;-2.29;88.57
967;BME280;56108;48.730;9.304;2023-02-28T06:40:10;98230.94;;;-2.19;88.20
967;BME280;56108;48.730;9.304;2023-02-28T06:42:21;98237.88;;;-2.18;88.53
967;BME280;56108;48.730;9.304;2023-02-28T06:44:33;98232.69;;;-2.23;88.38
967;BME280;56108;48.730;9.304;2023-02-28T06:46:43;98244.75;;;-2.14;87.83
967;BME280;56108;48.730;9.304;2023-02-28T06:48:52;98243.06;;;-2.17;87.98
967;BME280;56108;48.730;9.304;2023-02-28T06:53:11;98243.06;;;-2.17;88.26
967;BME280;56108;48.730;9.304;2023-02-28T06:55:19;98243.03;;;-2.14;87.69
967;BME280;56108;48.730;9.304;2023-02-28T06:57:31;98247.34;;;-2.11;87.59
967;BME280;56108;48.730;9.304;2023-02-28T06:59:39;98243.84;;;-2.07;87.01
967;BME280;56108;48.730;9.304;2023-02-28T07:01:47;98243.88;;;-2.12;86.83
967;BME280;56108;48.730;9.304;2023-02-28T07:03:57;98247.34;;;-2.08;86.85
967;BME280;56108;48.730;9.304;2023-02-28T07:06:05;98249.09;;;-2.08;86.60
967;BME280;56108;48.730;9.304;2023-02-28T07:08:14;98253.44;;;-2.11;86.27
967;BME280;56108;48.730;9.304;2023-02-28T07:10:22;98249.91;;;-2.03;86.71
967;BME280;56108;48.730;9.304;2023-02-28T07:12:32;98255.09;;;-2.00;86.16
967;BME280;56108;48.730;9.304;2023-02-28T07:14:40;98254.25;;;-2.05;86.31
967;BME280;56108;48.730;9.304;2023-02-28T07:16:48;98262.09;;;-2.05;86.20
967;BME280;56108;48.730;9.304;2023-02-28T07:18:56;98254.19;;;-1.99;86.10
967;BME280;56108;48.730;9.304;2023-02-28T07:21:05;98266.38;;;-1.98;85.69
967;BME280;56108;48.730;9.304;2023-02-28T07:23:13;98252.47;;;-1.97;85.41
967;BME280;56108;48.730;9.304;2023-02-28T07:25:22;98250.69;;;-1.95;85.14
967;BME280;56108;48.730;9.304;2023-02-28T07:27:32;98261.16;;;-2.00;84.47
967;BME280;56108;48.730;9.304;2023-02-28T07:29:41;98267.25;;;-1.98;84.90
967;BME280;56108;48.730;9.304;2023-02-28T07:31:49;98264.66;;;-2.01;84.43
967;BME280;56108;48.730;9.304;2023-02-28T07:33:58;98273.34;;;-2.00;84.44
967;BME280;56108;48.730;9.304;2023-02-28T07:36:10;98264.63;;;-1.96;84.37
967;BME280;56108;48.730;9.304;2023-02-28T07:38:20;98270.66;;;-1.94;84.71
967;BME280;56108;48.730;9.304;2023-02-28T07:40:28;98262.84;;;-1.93;85.17
967;BME280;56108;48.730;9.304;2023-02-28T07:42:39;98279.31;;;-1.89;85.04
967;BME280;56108;48.730;9.304;2023-02-28T07:44:47;98270.66;;;-1.94;84.87
967;BME280;56108;48.730;9.304;2023-02-28T07:46:56;98266.34;;;-1.95;84.81
967;BME280;56108;48.730;9.304;2023-02-28T07:49:06;98268.06;;;-1.94;85.23
967;BME280;56108;48.730;9.304;2023-02-28T07:51:14;98268.94;;;-1.95;84.96
967;BME280;56108;48.730;9.304;2023-02-28T07:53:22;98274.22;;;-1.98;85.00
967;BME280;56108;48.730;9.304;2023-02-28T07:55:30;98261.06;;;-1.88;85.24
967;BME280;56108;48.730;9.304;2023-02-28T07:57:41;98276.72;;;-1.88;85.09
967;BME280;56108;48.730;9.304;2023-02-28T07:59:49;98266.16;;;-1.75;84.47
967;BME280;56108;48.730;9.304;2023-02-28T08:01:57;98267.97;;;-1.82;84.43
967;BME280;56108;48.730;9.304;2023-02-28T08:04:05;98277.47;;;-1.78;84.44
967;BME280;56108;48.730;9.304;2023-02-28T08:06:18;98278.25;;;-1.68;84.07
967;BME280;56108;48.730;9.304;2023-02-28T08:08:27;98271.25;;;-1.62;84.10
967;BME280;56108;48.730;9.304;2023-02-28T08:10:36;98279.06;;;-1.63;83.52
967;BME280;56108;48.730;9.304;2023-02-28T08:12:47;98286.94;;;-1.68;82.42
967;BME280;56108;48.730;9.304;2023-02-28T08:14:55;98282.63;;;-1.70;82.90
967;BME280;56108;48.730;9.304;2023-02-28T08:17:04;98289.47;;;-1.59;82.87
967;BME280;56108;48.730;9.304;2023-02-28T08:19:12;98289.47;;;-1.59;82.23
967;BME280;56108;48.730;9.304;2023-02-28T08:21:20;98290.34;;;-1.56;82.53
967;BME280;56108;48.730;9.304;2023-02-28T08:23:28;98282.56;;;-1.61;82.29
967;BME280;56108;48.730;9.304;2023-02-28T08:25:38;98291.31;;;-1.67;82.92
967;BME280;56108;48.730;9.304;2023-02-28T08:27:50;98280.84;;;-1.68;82.32
967;BME280;56108;48.730;9.304;2023-02-28T08:29:58;98285.19;;;-1.66;82.79
967;BME280;56108;48.730;9.304;2023-02-28T08:32:06;98285.97;;;-1.58;82.77
967;BME280;56108;48.730;9.304;2023-02-28T08:34:32;98285.19;;;-1.66;82.55
967;BME280;56108;48.730;9.304;2023-02-28T08:36:41;98283.28;;;-1.51;82.22
967;BME280;56108;48.730;9.304;2023-02-28T08:38:49;98279.03;;;-1.59;82.13
967;BME280;56108;48.730;9.304;2023-02-28T08:40:58;98281.63;;;-1.55;82.35
967;BME280;56108;48.730;9.304;2023-02-28T08:43:09;98288.50;;;-1.51;82.39
967;BME280;56108;48.730;9.304;2023-02-28T08:45:17;98280.81;;;-1.64;82.24
967;BME280;56108;48.730;9.304;2023-02-28T08:47:25;98283.38;;;-1.56;82.71
967;BME280;56108;48.730;9.304;2023-02-28T08:49:33;98285.97;;;-1.56;82.43
967;BME280;56108;48.730;9.304;2023-02-28T08:51:42;98290.13;;;-1.38;82.17
967;BME280;56108;48.730;9.304;2023-02-28T08:53:50;98291.03;;;-1.42;82.18
967;BME280;56108;48.730;9.304;2023-02-28T08:55:59;98290.88;;;-1.27;81.59
967;BME280;56108;48.730;9.304;2023-02-28T08:58:10;98295.13;;;-1.18;80.67
967;BME280;56108;48.730;9.304;2023-02-28T09:00:19;98294.34;;;-1.26;80.81
967;BME280;56108;48.730;9.304;2023-02-28T09:02:27;98297.75;;;-1.21;81.17
967;BME280;56108;48.730;9.304;2023-02-28T09:04:36;98292.41;;;-1.09;80.56
967;BME280;56108;48.730;9.304;2023-02-28T09:06:44;98292.34;;;-1.03;80.33
967;BME280;56108;48.730;9.304;2023-02-28T09:08:56;98296.69;;;-1.05;79.97
967;BME280;56108;48.730;9.304;2023-02-28T09:11:06;98296.72;;;-1.03;79.73
967;BME280;56108;48.730;9.304;2023-02-28T09:13:17;98294.97;;;-1.03;79.40
967;BME280;56108;48.730;9.304;2023-02-28T09:15:25;98305.47;;;-1.09;79.71
967;BME280;56108;48.730;9.304;2023-02-28T09:17:33;98308.00;;;-1.05;79.13
967;BME280;56108;48.730;9.304;2023-02-28T09:19:41;98297.63;;;-1.08;78.43
967;BME280;56108;48.730;9.304;2023-02-28T09:21:49;98303.69;;;-1.06;78.54
967;BME280;56108;48.730;9.304;2023-02-28T09:23:57;98312.03;;;-0.76;77.99
967;BME280;56108;48.730;9.304;2023-02-28T09:26:05;98295.56;;;-0.83;77.09
967;BME280;56108;48.730;9.304;2023-02-28T09:28:14;98305.97;;;-0.80;77.88
967;BME280;56108;48.730;9.304;2023-02-28T09:30:26;98306.84;;;-0.77;77.87
967;BME280;56108;48.730;9.304;2023-02-28T09:32:34;98309.38;;;-0.73;77.18
967;BME280;56108;48.730;9.304;2023-02-28T09:34:42;98311.13;;;-0.75;77.04
967;BME280;56108;48.730;9.304;2023-02-28T09:36:50;98311.94;;;-0.70;76.74
967;BME280;56108;48.730;9.304;2023-02-28T09:39:00;98310.31;;;-0.77;77.01
967;BME280;56108;48.730;9.304;2023-02-28T09:41:13;98314.63;;;-0.76;77.27
967;BME280;56108;48.730;9.304;2023-02-28T09:43:26;98320.72;;;-0.75;77.08
967;BME280;56108;48.730;9.304;2023-02-28T09:45:41;98323.94;;;-0.55;76.58
967;BME280;56108;48.730;9.304;2023-02-28T09:47:51;98323.91;;;-0.52;75.44
967;BME280;56108;48.730;9.304;2023-02-28T09:50:11;98326.28;;;-0.37;74.93
967;BME280;56108;48.730;9.304;2023-02-28T09:52:27;98329.44;;;-0.13;74.21
967;BME280;56108;48.730;9.304;2023-02-28T09:54:36;98329.81;;;-0.36;73.96
967;BME280;56108;48.730;9.304;2023-02-28T09:56:48;98330.66;;;-0.36;74.12
967;BME280;56108;48.730;9.304;2023-02-28T09:59:01;98333.22;;;-0.31;73.76
967;BME280;56108;48.730;9.304;2023-02-28T10:01:24;98326.69;;;-0.06;74.32
967;BME280;56108;48.730;9.304;2023-02-28T10:03:39;98338.50;;;0.21;72.49
967;BME280;56108;48.730;9.304;2023-02-28T10:05:52;98332.97;;;-0.14;70.88
967;BME280;56108;48.730;9.304;2023-02-28T10:08:05;98343.00;;;0.13;70.84
967;BME280;56108;48.730;9.304;2023-02-28T10:10:21;98344.78;;;0.10;70.40
967;BME280;56108;48.730;9.304;2023-02-28T10:12:31;98345.66;;;0.10;70.24
967;BME280;56108;48.730;9.304;2023-02-28T10:14:43;98342.97;;;0.15;69.47
967;BME280;56108;48.730;9.304;2023-02-28T10:16:58;98348.56;;;0.46;70.07
967;BME280;56108;48.730;9.304;2023-02-28T10:19:13;98353.66;;;0.55;67.44
967;BME280;56108;48.730;9.304;2023-02-28T10:21:26;98358.94;;;1.00;66.53
967;BME280;56108;48.730;9.304;2023-02-28T10:23:38;98366.41;;;1.21;64.62
967;BME280;56108;48.730;9.304;2023-02-28T10:25:57;98365.53;;;1.21;64.33
967;BME280;56108;48.730;9.304;2023-02-28T10:28:10;98367.78;;;1.39;63.49
967;BME280;56108;48.730;9.304;2023-02-28T10:30:19;98378.19;;;0.97;63.07
967;BME280;56108;48.730;9.304;2023-02-28T10:32:32;98374.47;;;1.54;62.30
967;BME280;56108;48.730;9.304;2023-02-28T10:34:41;98378.44;;;1.73;60.76
967;BME280;56108;48.730;9.304;2023-02-28T10:36:50;98374.63;;;2.25;60.05
967;BME280;56108;48.730;9.304;2023-02-28T10:38:59;98381.81;;;2.17;57.99
967;BME280;56108;48.730;9.304;2023-02-28T10:41:09;98371.78;;;1.57;59.80
967;BME280;56108;48.730;9.304;2023-02-28T10:43:21;98368.22;;;1.98;59.66
967;BME280;56108;48.730;9.304;2023-02-28T10:45:31;98372.78;;;1.51;60.24
967;BME280;56108;48.730;9.304;2023-02-28T10:47:50;98371.50;;;2.08;59.73
967;BME280;56108;48.730;9.304;2023-02-28T10:50:00;98383.16;;;2.33;57.71
967;BME280;56108;48.730;9.304;2023-02-28T10:52:09;98377.53;;;2.49;58.36
967;BME280;56108;48.730;9.304;2023-02-28T10:54:19;98376.00;;;2.04;58.75
967;BME280;56108;48.730;9.304;2023-02-28T10:56:30;98369.03;;;2.39;58.55
967;BME280;56108;48.730;9.304;2023-02-28T10:58:48;98394.03;;;3.22;55.98
967;BME280;56108;48.730;9.304;2023-02-28T11:00:57;98380.81;;;2.93;56.23
967;BME280;56108;48.730;9.304;2023-02-28T11:03:23;98389.44;;;3.30;56.07
967;BME280;56108;48.730;9.304;2023-02-28T11:05:33;98387.19;;;3.17;54.73
967;BME280;56108;48.730;9.304;2023-02-28T11:07:51;98385.69;;;3.39;55.28
967;BME280;56108;48.730;9.304;2023-02-28T11:10:04;98402.91;;;3.18;54.86
967;BME280;56108;48.730;9.304;2023-02-28T11:12:20;98385.53;;;3.12;55.37
967;BME280;56108;48.730;9.304;2023-02-28T11:14:30;98386.41;;;3.44;55.85
967;BME280;56108;48.730;9.304;2023-02-28T11:16:40;98374.66;;;2.59;57.42
967;BME280;56108;48.730;9.304;2023-02-28T11:18:53;98378.78;;;2.34;57.56
967;BME280;56108;48.730;9.304;2023-02-28T11:21:02;98366.34;;;2.05;58.64
967;BME280;56108;48.730;9.304;2023-02-28T11:23:12;98365.38;;;2.45;58.61
967;BME280;56108;48.730;9.304;2023-02-28T11:25:26;98363.94;;;3.01;57.05
967;BME280;56108;48.730;9.304;2023-02-28T11:27:45;98368.03;;;3.11;56.93
967;BME280;56108;48.730;9.304;2023-02-28T11:29:54;98362.66;;;3.47;56.90
967;BME280;56108;48.730;9.304;2023-02-28T11:32:12;98366.41;;;3.38;55.60
967;BME280;56108;48.730;9.304;2023-02-28T11:34:26;98375.88;;;3.44;55.05
967;BME280;56108;48.730;9.304;2023-02-28T11:36:34;98371.16;;;3.26;55.89
967;BME280;56108;48.730;9.304;2023-02-28T11:38:49;98360.88;;;2.84;56.54
967;BME280;56108;48.730;9.304;2023-02-28T11:41:08;98362.59;;;3.49;56.26
967;BME280;56108;48.730;9.304;2023-02-28T11:43:30;98360.81;;;3.20;55.06
967;BME280;56108;48.730;9.304;2023-02-28T11:45:52;98367.06;;;3.47;55.03
967;BME280;56108;48.730;9.304;2023-02-28T11:48:10;98361.84;;;3.14;54.49
967;BME280;56108;48.730;9.304;2023-02-28T11:50:40;98358.78;;;3.29;55.27
967;BME280;56108;48.730;9.304;2023-02-28T11:52:53;98363.06;;;3.01;55.52
967;BME280;56108;48.730;9.304;2023-02-28T11:55:16;98364.38;;;2.50;56.59
967;BME280;56108;48.730;9.304;2023-02-28T11:57:32;98357.59;;;2.40;56.69
967;BME280;56108;48.730;9.304;2023-02-28T11:59:52;98346.13;;;2.46;57.81
967;BME280;56108;48.730;9.304;2023-02-28T12:02:23;98349.06;;;3.00;56.28